Etusivu
METAR-TAF:

METAR-TAF

Lentoasemat :

Webster City Municipal Airport

Webster City, Iowa, Yhdysvallat

Leveyspiiri: 42-26N, Pituuspiiri: 093-52W, korkeus merenpinnasta: 342 m

Tämänhetkinen sää

Tämä raportti tehtiin 12 minuuttia sitten, kello 18.55 UTC
Tuuli 10 kn etelästä
Lämpötila -10°C
Kosteus 56%
Ilmanpaine 1030 hPa
Näkyvyys: 16.1 km
selkeää

METAR: KEBS 121855Z AUTO 18010KT 10SM CLR M10/M17 A3041 RMK AO2

Aika: 13:07 (19:07 UTC)


TAF: puuttuu

Säähavainnot ja -ennusteet yli 4000 lentoasemalta (METAR- ja TAF-raportit).

Käytössä olevat sääasemat on merkitty karttaan keltaisilla ja punaisilla pisteillä.

Aseta hiiri pisteen päälle nähdäksesi sääaseman nimen.

Klikkaa sitten nähdäksesi säähavainnot ja -ennusteet.

Kartan vaihtaminen: klikkaa mustalla rastilla varustettuja vihreitä pisteitä, niin voit zoomata sisään; viivalla varustettua vihreää pistettä, niin voit zoomata ulos tai vihreitä nuolia, niin pääset viereisille kartoille.


METAR-TAF: